Terminal Aerodrome Forecast
Issued by NWS Glasgow, MT

Home | Current Version | Previous Version | Text Only | Print | Product List | Glossary On
Versions: 1 2 3 4 5 6 7 8 9 10 11 12 13 14 15
000
FTUS45 KGGW 012300
TAFGGW
TAF
KGGW 012320Z 0200/0224 VRB06KT P6SM SCT050
     FM020300 14008KT P6SM FEW250
     FM021800 27009KT P6SM BKN250
     FM022100 32018KT P6SM VCSH BKN025=

USA.gov is the U.S. government's official web portal to all federal, state and local government web resources and services.